Airport View

Enter AWOS ICAO identifier for current METAR.

ex. KFNL

KPVC 100356Z AUTO 19007KT 10SM CLR 22/21 A3004 RMK AO2 SLP170 T02170211 PNO $

10 Jul 2020 04:15

Frequency: 119.025

Phone: 508-487-6435

Other Area AWOS: KGHG - KHYA - KPYM - KCQX

TAF AMD KHYA 100232Z 1003/1024 19004KT P6SM SKC FM100600 17005KT 3/4SM BR OVC003 FM101000 14005KT 1 1/2SM BR OVC040 FM101300 13006KT 2SM BR OVC008 FM101500 13007KT P6SM OVC020